createdAt,value
2022-10-10T05:03:28.605Z,16.80
2022-10-10T05:08:32.288Z,16.90
2022-10-10T05:13:35.898Z,16.90
2022-10-10T05:18:40.868Z,17.00
2022-10-10T05:23:44.512Z,17.00
2022-10-10T05:28:48.240Z,17.20
2022-10-10T05:33:53.346Z,17.10
2022-10-10T05:38:57.615Z,17.20
2022-10-10T05:44:01.297Z,17.20
2022-10-10T05:49:06.251Z,17.30
2022-10-10T05:54:10.074Z,17.30
2022-10-10T05:59:13.774Z,17.30
2022-10-10T06:04:18.932Z,17.20
2022-10-10T06:09:22.680Z,17.20
2022-10-10T06:14:26.346Z,17.20
2022-10-10T06:19:31.510Z,17.20
2022-10-10T06:24:35.322Z,17.20
2022-10-10T06:29:38.926Z,17.10
2022-10-10T06:34:44.146Z,17.10
2022-10-10T06:39:47.769Z,17.10
2022-10-10T06:44:51.613Z,17.10
2022-10-10T06:49:56.858Z,17.00
2022-10-10T06:55:00.488Z,17.00
2022-10-10T07:00:05.746Z,17.00
2022-10-10T07:05:13.037Z,17.10
2022-10-10T07:10:17.160Z,17.20
2022-10-10T07:15:20.783Z,17.20
2022-10-10T07:20:25.880Z,17.20
2022-10-10T07:25:30.122Z,17.30
2022-10-10T07:30:34.021Z,17.50
2022-10-10T07:35:38.988Z,17.50
2022-10-10T07:40:42.559Z,17.50
2022-10-10T07:45:46.259Z,17.50
2022-10-10T07:50:51.197Z,17.60
2022-10-10T07:55:54.796Z,17.70
2022-10-10T08:01:03.868Z,17.70
2022-10-10T08:06:11.749Z,17.80
2022-10-10T08:11:15.395Z,18.00
2022-10-10T08:16:19.432Z,18.00
2022-10-10T08:21:24.521Z,18.10
2022-10-10T08:26:28.144Z,18.20
2022-10-10T08:31:31.812Z,18.20
2022-10-10T08:36:37.306Z,18.30
2022-10-10T08:41:47.029Z,18.50
2022-10-10T08:46:53.777Z,18.60
2022-10-10T08:52:04.577Z,18.90
2022-10-10T08:57:16.686Z,19.00
2022-10-10T09:02:53.127Z,19.20
2022-10-10T09:08:18.000Z,19.50
2022-10-10T09:13:31.642Z,20.00
2022-10-10T09:18:47.040Z,20.50
2022-10-10T09:23:55.994Z,20.80
2022-10-10T09:29:06.117Z,21.10
2022-10-10T09:34:16.421Z,21.10
2022-10-10T09:39:32.498Z,21.10
2022-10-10T09:44:36.135Z,21.00
2022-10-10T09:49:39.758Z,21.00
2022-10-10T09:54:44.913Z,20.90
2022-10-10T09:59:48.536Z,20.90
2022-10-10T10:04:53.793Z,20.90
2022-10-10T10:10:00.534Z,20.90
2022-10-10T10:15:08.551Z,20.90
2022-10-10T10:20:34.107Z,21.10
2022-10-10T10:25:40.032Z,21.10
2022-10-10T10:30:45.127Z,21.20
2022-10-10T10:35:56.815Z,21.20
2022-10-10T10:41:10.354Z,21.20
2022-10-10T10:46:24.744Z,21.20
2022-10-10T10:51:53.716Z,21.20
2022-10-10T10:57:06.616Z,21.20
2022-10-10T11:02:54.723Z,21.20
2022-10-10T11:08:07.135Z,21.20
2022-10-10T11:13:20.402Z,21.20
2022-10-10T11:18:29.284Z,21.20
2022-10-10T11:23:36.918Z,21.20
2022-10-10T11:28:49.431Z,21.10
2022-10-10T11:33:57.766Z,21.00
2022-10-10T11:39:05.562Z,21.00
2022-10-10T11:44:16.083Z,21.10
2022-10-10T11:49:25.329Z,21.20
2022-10-10T11:54:34.147Z,21.20
2022-10-10T11:59:44.649Z,21.30
2022-10-10T12:04:48.596Z,21.40
2022-10-10T12:09:56.897Z,21.40
2022-10-10T12:15:04.811Z,21.60
2022-10-10T12:20:30.320Z,21.70
2022-10-10T12:25:40.776Z,22.00
2022-10-10T12:31:30.201Z,22.00
2022-10-10T12:36:55.301Z,22.20
2022-10-10T12:41:58.961Z,22.50
2022-10-10T12:47:59.865Z,22.60
2022-10-10T12:52:58.664Z,22.60
2022-10-10T12:58:04.671Z,22.50
2022-10-10T13:03:20.637Z,22.10
2022-10-10T13:08:28.277Z,21.80
2022-10-10T13:13:31.991Z,21.70
2022-10-10T13:18:39.971Z,21.40
2022-10-10T13:29:25.509Z,21.00
2022-10-10T13:34:34.175Z,20.80
2022-10-10T13:39:39.909Z,20.70
2022-10-10T13:44:52.457Z,20.40
2022-10-10T13:49:58.456Z,20.20
2022-10-10T13:55:17.202Z,20.10
2022-10-10T14:00:22.980Z,20.00
2022-10-10T14:05:30.497Z,19.90
2022-10-10T14:10:37.039Z,19.90
2022-10-10T14:15:46.866Z,19.80
2022-10-10T14:20:53.431Z,19.80
2022-10-10T14:25:58.534Z,19.90
2022-10-10T14:31:03.063Z,19.80
2022-10-10T14:36:08.977Z,19.80
2022-10-10T14:41:14.180Z,19.80
2022-10-10T14:46:19.972Z,19.80
2022-10-10T14:51:33.880Z,19.80
2022-10-10T14:57:08.553Z,19.90
2022-10-10T15:02:02.277Z,19.80
2022-10-10T15:07:15.376Z,19.90
2022-10-10T15:12:19.340Z,19.90
2022-10-10T15:17:24.439Z,19.90
2022-10-10T15:22:29.997Z,19.90
2022-10-10T15:27:33.662Z,19.90
2022-10-10T15:32:40.385Z,20.00
2022-10-10T15:37:45.779Z,20.00
2022-10-10T15:42:49.716Z,20.00
2022-10-10T15:47:53.345Z,20.10
2022-10-10T15:52:58.330Z,20.00
2022-10-10T15:58:04.008Z,20.00
2022-10-10T16:03:08.050Z,19.90
2022-10-10T16:08:13.235Z,19.90
2022-10-10T16:13:16.821Z,19.80
2022-10-10T16:18:20.428Z,19.80
2022-10-10T16:23:26.074Z,19.80
2022-10-10T16:28:29.773Z,19.80
2022-10-10T16:33:34.167Z,19.80
2022-10-10T16:38:39.617Z,19.80
2022-10-10T16:43:45.608Z,19.70
2022-10-10T16:48:49.653Z,19.70
2022-10-10T16:53:55.140Z,19.60
2022-10-10T16:59:00.183Z,19.60
2022-10-10T17:04:04.592Z,19.50
2022-10-10T17:09:11.539Z,19.50
2022-10-10T17:14:16.219Z,19.40
2022-10-10T17:19:19.931Z,19.30
2022-10-10T17:24:25.002Z,19.30
2022-10-10T17:29:28.667Z,19.30
2022-10-10T17:34:32.425Z,19.30
2022-10-10T17:39:37.437Z,19.20
2022-10-10T17:44:48.315Z,19.20
2022-10-10T17:49:55.328Z,19.20
2022-10-10T17:55:00.286Z,19.20
2022-10-10T18:00:04.424Z,19.10
2022-10-10T18:05:08.326Z,19.10
2022-10-10T18:10:13.344Z,19.00
2022-10-10T18:15:16.995Z,19.00
2022-10-10T18:20:20.616Z,18.90
2022-10-10T18:25:25.597Z,18.80
2022-10-10T18:30:29.988Z,18.70
2022-10-10T18:35:33.670Z,18.70
2022-10-10T18:40:38.681Z,18.70
2022-10-10T18:45:42.265Z,18.60
2022-10-10T18:50:45.874Z,18.60
2022-10-10T18:55:57.596Z,18.60
2022-10-10T19:01:03.754Z,18.50
2022-10-10T19:06:10.592Z,18.50
2022-10-10T19:11:22.508Z,18.50
2022-10-10T19:16:26.354Z,18.40
2022-10-10T19:21:32.143Z,18.40
2022-10-10T19:26:37.487Z,18.30
2022-10-10T19:31:42.096Z,18.20
2022-10-10T19:36:45.796Z,18.20
2022-10-10T19:41:50.856Z,18.10
2022-10-10T19:46:56.169Z,18.10
2022-10-10T19:51:59.798Z,18.00
2022-10-10T19:57:05.255Z,17.90
2022-10-10T20:02:10.905Z,17.80
2022-10-10T20:07:14.542Z,17.70
2022-10-10T20:12:19.564Z,17.70
2022-10-10T20:17:23.494Z,17.60
2022-10-10T20:22:27.197Z,17.50
2022-10-10T20:27:32.488Z,17.50
2022-10-10T20:32:36.096Z,17.50
2022-10-10T20:37:39.674Z,17.50
2022-10-10T20:42:44.735Z,17.50
2022-10-10T20:47:48.609Z,17.40
2022-10-10T20:52:52.208Z,17.40
2022-10-10T20:57:57.199Z,17.30
2022-10-10T21:03:00.794Z,17.40
2022-10-10T21:08:04.474Z,17.30
2022-10-10T21:13:09.489Z,17.30
2022-10-10T21:18:13.072Z,17.30
2022-10-10T21:23:16.922Z,17.30
2022-10-10T21:28:21.966Z,17.30
2022-10-10T21:33:25.683Z,17.30
2022-10-10T21:38:29.745Z,17.30
2022-10-10T21:43:35.220Z,17.20
2022-10-10T21:48:39.016Z,17.20
2022-10-10T21:53:42.911Z,17.10
2022-10-10T21:58:47.995Z,17.00
2022-10-10T22:03:53.262Z,17.00
2022-10-10T22:08:59.810Z,16.90
2022-10-10T22:14:05.681Z,16.90
2022-10-10T22:19:09.441Z,16.90
2022-10-10T22:24:13.275Z,16.80
2022-10-10T22:29:18.225Z,16.80
